createdAt,value
2022-12-11T00:00:15.703Z,72.23
2022-12-11T00:02:42.443Z,72.91
2022-12-11T00:05:09.983Z,72.93
2022-12-11T00:07:37.534Z,73.88
2022-12-11T00:10:04.976Z,73.13
2022-12-11T00:12:32.428Z,72.67
2022-12-11T00:14:59.597Z,72.15
2022-12-11T00:17:26.449Z,71.62
2022-12-11T00:19:53.054Z,71.73
2022-12-11T00:22:19.973Z,72.38
2022-12-11T00:24:47.177Z,72.62
2022-12-11T00:27:13.998Z,73.14
2022-12-11T00:29:40.678Z,73.26
2022-12-11T00:32:07.364Z,71.44
2022-12-11T00:34:34.023Z,71.27
2022-12-11T00:37:02.369Z,72.64
2022-12-11T00:39:29.290Z,73.15
2022-12-11T00:41:56.001Z,74.03
2022-12-11T00:44:23.027Z,73.04
2022-12-11T00:46:49.998Z,72.91
2022-12-11T00:49:16.735Z,71.44
2022-12-11T00:51:43.357Z,71.53
2022-12-11T00:54:10.080Z,71.22
2022-12-11T00:56:36.703Z,71.70
2022-12-11T00:59:03.449Z,72.37
2022-12-11T01:01:30.099Z,73.60
2022-12-11T01:03:56.854Z,72.47
2022-12-11T01:06:26.353Z,72.33
2022-12-11T01:09:13.888Z,73.26
2022-12-11T01:11:42.653Z,72.86
2022-12-11T01:14:10.793Z,72.57
2022-12-11T01:16:37.561Z,72.60
2022-12-11T01:19:04.646Z,70.74
2022-12-11T01:21:31.323Z,70.85
2022-12-11T01:23:57.995Z,71.68
2022-12-11T01:26:24.674Z,72.06
2022-12-11T01:28:51.984Z,70.18
2022-12-11T01:31:20.078Z,70.85
2022-12-11T01:33:46.759Z,71.31
2022-12-11T01:36:21.887Z,72.54
2022-12-11T01:38:49.381Z,72.53
2022-12-11T01:41:17.895Z,71.97
2022-12-11T01:44:27.502Z,70.53
2022-12-11T01:46:54.520Z,72.21
2022-12-11T01:49:27.231Z,71.53
2022-12-11T01:52:01.849Z,72.91
2022-12-11T01:54:29.941Z,73.54
2022-12-11T01:57:01.355Z,71.81
2022-12-11T01:59:31.793Z,71.33
2022-12-11T02:02:08.691Z,72.15
2022-12-11T02:04:38.232Z,73.19
2022-12-11T02:07:05.223Z,72.47
2022-12-11T02:09:35.102Z,72.41
2022-12-11T02:12:07.554Z,72.75
2022-12-11T02:14:41.503Z,72.75
2022-12-11T02:17:46.776Z,71.85
2022-12-11T02:20:35.325Z,72.54
2022-12-11T02:23:23.888Z,71.83
2022-12-11T02:26:02.076Z,74.50
2022-12-11T02:28:42.581Z,74.40
2022-12-11T02:31:17.841Z,74.29
2022-12-11T02:33:59.543Z,74.46
2022-12-11T02:36:31.172Z,75.03
2022-12-11T02:39:01.518Z,73.64
2022-12-11T02:41:31.466Z,74.94
2022-12-11T02:43:59.775Z,73.77
2022-12-11T02:46:28.142Z,73.99
2022-12-11T02:48:58.279Z,71.86
2022-12-11T02:51:29.724Z,71.65
2022-12-11T02:53:59.102Z,71.27
2022-12-11T02:56:34.022Z,70.59
2022-12-11T02:59:08.872Z,71.78
2022-12-11T03:01:36.106Z,72.16
2022-12-11T03:04:03.377Z,71.58
2022-12-11T03:06:38.945Z,72.06
2022-12-11T03:09:07.030Z,72.36
2022-12-11T03:11:33.720Z,72.00
2022-12-11T03:14:02.836Z,72.47
2022-12-11T03:16:38.984Z,72.32
2022-12-11T03:19:15.496Z,72.77
2022-12-11T03:22:08.254Z,73.52
2022-12-11T03:24:45.906Z,73.42
2022-12-11T03:27:22.706Z,73.52
2022-12-11T03:30:00.174Z,73.21
2022-12-11T03:32:36.051Z,73.74
2022-12-11T03:35:17.486Z,73.48
2022-12-11T03:37:48.274Z,72.96
2022-12-11T03:40:17.463Z,71.97
2022-12-11T03:42:47.257Z,72.33
2022-12-11T03:45:16.445Z,71.80
2022-12-11T03:47:44.484Z,72.90
2022-12-11T03:50:14.274Z,74.39
2022-12-11T03:52:46.037Z,73.44
2022-12-11T03:55:16.303Z,73.09
2022-12-11T03:57:43.561Z,73.72
2022-12-11T04:00:14.091Z,73.66
2022-12-11T04:02:42.336Z,72.84
2022-12-11T04:05:10.428Z,73.37
2022-12-11T04:07:37.517Z,75.20
2022-12-11T04:10:05.320Z,76.45
2022-12-11T04:12:32.120Z,76.54
2022-12-11T04:15:01.791Z,76.87
2022-12-11T04:17:52.533Z,75.72
2022-12-11T04:20:38.288Z,75.54
2022-12-11T04:23:31.765Z,76.45
2022-12-11T04:26:09.206Z,76.57
2022-12-11T04:28:36.524Z,76.25
2022-12-11T04:31:03.836Z,76.83
2022-12-11T04:33:31.421Z,77.28
2022-12-11T04:35:59.504Z,78.14
2022-12-11T04:38:26.852Z,77.71
2022-12-11T04:41:01.193Z,77.99
2022-12-11T04:43:28.115Z,77.27
2022-12-11T04:46:08.212Z,76.38
2022-12-11T04:48:35.596Z,77.70
2022-12-11T04:51:02.838Z,77.93
2022-12-11T04:53:30.124Z,78.51
2022-12-11T04:55:56.968Z,78.22
2022-12-11T04:58:25.233Z,78.92
2022-12-11T05:00:52.333Z,77.77
2022-12-11T05:03:20.512Z,77.65
2022-12-11T05:05:49.248Z,78.50
2022-12-11T05:08:16.501Z,78.89
2022-12-11T05:10:48.582Z,79.04
2022-12-11T05:13:17.235Z,78.51
2022-12-11T05:15:43.932Z,78.28
2022-12-11T05:18:10.568Z,79.26
2022-12-11T05:20:37.217Z,78.48
2022-12-11T05:23:04.354Z,78.83
2022-12-11T05:25:31.387Z,78.25
2022-12-11T05:27:58.256Z,78.35
2022-12-11T05:30:24.979Z,78.95
2022-12-11T05:32:51.857Z,76.64
2022-12-11T05:35:18.863Z,78.12
2022-12-11T05:37:45.740Z,76.08
2022-12-11T05:40:12.725Z,77.25
2022-12-11T05:42:40.688Z,76.68
2022-12-11T05:45:07.702Z,77.81
2022-12-11T05:47:34.471Z,79.63
2022-12-11T05:50:01.378Z,79.34
2022-12-11T05:52:28.169Z,78.36
2022-12-11T05:54:54.762Z,79.92
2022-12-11T05:57:21.450Z,79.27
2022-12-11T05:59:48.478Z,76.43
2022-12-11T06:02:15.336Z,76.88
2022-12-11T06:04:42.121Z,77.01
2022-12-11T06:07:08.744Z,77.51
2022-12-11T06:09:35.493Z,78.26
2022-12-11T06:12:02.120Z,79.20
2022-12-11T06:14:29.112Z,79.55
2022-12-11T06:16:58.515Z,79.21
2022-12-11T06:19:32.019Z,78.83
2022-12-11T06:22:04.689Z,78.83
2022-12-11T06:24:31.394Z,80.86
2022-12-11T06:26:58.286Z,81.88
2022-12-11T06:29:24.910Z,79.94
2022-12-11T06:31:52.083Z,81.22
2022-12-11T06:34:18.888Z,82.41
2022-12-11T06:36:45.814Z,83.20
2022-12-11T06:39:12.450Z,80.99
2022-12-11T06:41:39.171Z,81.09
2022-12-11T06:44:06.161Z,81.51
2022-12-11T06:46:33.252Z,80.90
2022-12-11T06:49:00.459Z,81.74
2022-12-11T06:51:27.397Z,79.98
2022-12-11T06:53:56.941Z,80.66
2022-12-11T06:56:24.728Z,82.29
2022-12-11T06:58:52.233Z,82.32
2022-12-11T07:01:20.421Z,81.57
2022-12-11T07:03:47.132Z,81.66
2022-12-11T07:06:14.892Z,81.40
2022-12-11T07:08:45.055Z,81.18
2022-12-11T07:11:14.117Z,81.15
2022-12-11T07:13:42.335Z,81.67
2022-12-11T07:16:11.312Z,80.39
2022-12-11T07:18:40.053Z,80.22
2022-12-11T07:21:08.460Z,79.66
2022-12-11T07:23:35.824Z,79.59
2022-12-11T07:26:07.460Z,79.85
2022-12-11T07:28:34.922Z,79.68
2022-12-11T07:31:16.747Z,76.75
2022-12-11T07:33:43.794Z,78.22
2022-12-11T07:36:13.253Z,78.70
2022-12-11T07:38:40.594Z,76.77
2022-12-11T07:41:13.773Z,78.98
2022-12-11T07:43:41.766Z,79.96
2022-12-11T07:46:15.858Z,80.60
2022-12-11T07:48:44.305Z,80.31
2022-12-11T07:51:16.940Z,79.57
2022-12-11T07:53:45.622Z,79.37
2022-12-11T07:56:12.904Z,78.59
2022-12-11T07:58:39.675Z,79.34
2022-12-11T08:01:23.652Z,79.51
2022-12-11T08:03:50.823Z,78.88
2022-12-11T08:06:20.204Z,77.20
2022-12-11T08:08:47.605Z,77.69
2022-12-11T08:11:15.658Z,77.61
2022-12-11T08:13:43.234Z,77.71
2022-12-11T08:16:14.816Z,77.81
2022-12-11T08:18:43.012Z,77.82
2022-12-11T08:21:12.482Z,77.30
2022-12-11T08:23:42.036Z,76.96
2022-12-11T08:26:12.508Z,77.38
2022-12-11T08:28:39.241Z,78.03
2022-12-11T08:31:09.328Z,76.94
2022-12-11T08:33:38.639Z,77.30
2022-12-11T08:36:07.420Z,77.09
2022-12-11T08:38:34.556Z,75.45
2022-12-11T08:41:21.259Z,76.33
2022-12-11T08:43:49.803Z,76.67
2022-12-11T08:46:16.524Z,75.77
2022-12-11T08:48:43.866Z,75.01
2022-12-11T08:51:17.336Z,76.63
2022-12-11T08:53:44.879Z,77.23
2022-12-11T08:56:15.619Z,77.02
2022-12-11T08:58:43.212Z,75.94
2022-12-11T09:01:15.499Z,74.87
2022-12-11T09:03:42.559Z,76.51
2022-12-11T09:06:11.840Z,77.20
2022-12-11T09:08:40.221Z,76.95
2022-12-11T09:11:10.799Z,76.90
2022-12-11T09:13:38.995Z,77.05
2022-12-11T09:16:11.540Z,76.66
2022-12-11T09:18:39.619Z,76.65
2022-12-11T09:21:09.988Z,76.50
2022-12-11T09:23:37.236Z,76.50
2022-12-11T09:26:06.077Z,76.83
2022-12-11T09:28:33.295Z,77.71
2022-12-11T09:31:00.770Z,77.21
2022-12-11T09:33:27.641Z,77.50
2022-12-11T09:35:59.393Z,76.95
2022-12-11T09:38:26.532Z,76.46
2022-12-11T09:40:53.462Z,76.02
2022-12-11T09:43:42.641Z,76.34
2022-12-11T09:46:14.771Z,76.75
2022-12-11T09:48:45.649Z,76.21
2022-12-11T09:51:20.865Z,77.02
2022-12-11T09:53:50.453Z,76.50
2022-12-11T09:56:27.602Z,76.09
2022-12-11T09:59:23.698Z,75.71
2022-12-11T10:02:17.104Z,75.87
2022-12-11T10:04:43.665Z,75.94
2022-12-11T10:07:20.911Z,75.05
2022-12-11T10:10:02.619Z,75.73
2022-12-11T10:12:39.946Z,75.55
2022-12-11T10:15:19.847Z,74.12
2022-12-11T10:17:47.161Z,74.54
2022-12-11T10:20:36.487Z,75.71
2022-12-11T10:23:07.082Z,77.08
2022-12-11T10:26:07.329Z,75.73
2022-12-11T10:28:34.982Z,75.32
2022-12-11T10:31:37.084Z,74.37
2022-12-11T10:34:15.715Z,74.24
2022-12-11T10:36:43.481Z,74.52
2022-12-11T10:39:19.134Z,76.04
2022-12-11T10:41:51.000Z,77.11
2022-12-11T10:44:30.163Z,76.00
2022-12-11T10:47:06.380Z,76.46
2022-12-11T10:49:36.452Z,75.80
2022-12-11T10:52:11.840Z,75.29
2022-12-11T10:54:43.768Z,74.46
2022-12-11T10:57:14.231Z,75.74
2022-12-11T10:59:49.551Z,75.20
2022-12-11T11:02:36.739Z,74.89
2022-12-11T11:05:27.354Z,73.77
2022-12-11T11:08:23.841Z,73.40
2022-12-11T11:10:59.365Z,72.82
2022-12-11T11:13:28.766Z,72.90
2022-12-11T11:16:01.537Z,72.68
2022-12-11T11:18:30.249Z,72.97
2022-12-11T11:20:57.365Z,73.88
2022-12-11T11:23:25.284Z,74.01
2022-12-11T11:25:57.745Z,73.50
2022-12-11T11:28:28.494Z,73.89
2022-12-11T11:31:05.419Z,73.51
2022-12-11T11:33:35.467Z,72.40
2022-12-11T11:36:05.753Z,73.56
2022-12-11T11:38:50.733Z,73.82
2022-12-11T11:41:24.098Z,74.21
2022-12-11T11:44:00.506Z,74.30
2022-12-11T11:46:38.903Z,73.02
2022-12-11T11:49:28.187Z,73.70
2022-12-11T11:52:03.680Z,73.43
2022-12-11T11:54:37.739Z,72.66
2022-12-11T11:57:17.930Z,72.91
2022-12-11T11:59:54.723Z,74.30
2022-12-11T12:02:21.624Z,74.53
2022-12-11T12:04:51.184Z,73.79
2022-12-11T12:07:35.676Z,73.21
2022-12-11T12:10:21.161Z,73.22
2022-12-11T12:12:57.420Z,76.23
2022-12-11T12:15:40.925Z,75.06
2022-12-11T12:18:25.016Z,75.12
2022-12-11T12:21:02.530Z,75.18
2022-12-11T12:23:36.964Z,74.75
2022-12-11T12:26:22.200Z,74.51
2022-12-11T12:29:01.888Z,74.20
2022-12-11T12:31:46.979Z,75.19
2022-12-11T12:34:45.411Z,73.04
2022-12-11T12:37:45.648Z,73.39
2022-12-11T12:40:31.058Z,73.49
2022-12-11T12:43:43.119Z,73.14
2022-12-11T12:46:34.585Z,72.38
2022-12-11T12:49:02.863Z,72.95
2022-12-11T12:51:30.371Z,72.33
2022-12-11T12:54:06.673Z,73.13
2022-12-11T12:56:40.552Z,73.09
2022-12-11T12:59:21.173Z,73.00
2022-12-11T13:01:52.324Z,73.06
2022-12-11T13:04:54.867Z,74.21
2022-12-11T13:07:30.060Z,74.40
2022-12-11T13:10:00.806Z,73.74
2022-12-11T13:12:33.971Z,74.20
2022-12-11T13:15:00.969Z,73.40
2022-12-11T13:17:38.736Z,74.47
2022-12-11T13:20:20.860Z,74.11
2022-12-11T13:23:07.494Z,73.71
2022-12-11T13:25:51.319Z,73.78
2022-12-11T13:28:46.728Z,72.47
2022-12-11T13:31:28.012Z,71.64
2022-12-11T13:33:57.024Z,71.75
2022-12-11T13:36:29.861Z,72.96
2022-12-11T13:39:07.930Z,71.57
2022-12-11T13:41:37.540Z,71.90
2022-12-11T13:44:06.997Z,72.59
2022-12-11T13:46:37.787Z,73.13
2022-12-11T13:49:06.912Z,72.84
2022-12-11T13:51:37.862Z,72.92
2022-12-11T13:54:17.286Z,71.72
2022-12-11T13:57:15.337Z,71.96
2022-12-11T13:59:46.930Z,72.67
2022-12-11T14:02:21.272Z,71.85
2022-12-11T14:04:51.593Z,72.41
2022-12-11T14:07:26.930Z,72.53
2022-12-11T14:10:00.278Z,73.06
2022-12-11T14:12:29.376Z,73.00
2022-12-11T14:14:57.943Z,71.36
2022-12-11T14:17:27.821Z,69.45
2022-12-11T14:19:57.490Z,70.51
2022-12-11T14:22:26.776Z,69.60
2022-12-11T14:25:00.311Z,70.07
2022-12-11T14:27:27.730Z,71.17
2022-12-11T14:29:54.984Z,72.02
2022-12-11T14:32:35.101Z,71.82
2022-12-11T14:35:05.859Z,71.71
2022-12-11T14:37:35.675Z,71.23
2022-12-11T14:40:08.123Z,71.15
2022-12-11T14:42:44.728Z,71.90
2022-12-11T14:45:48.435Z,73.36
2022-12-11T14:48:23.737Z,72.45
2022-12-11T14:50:57.620Z,72.37
2022-12-11T14:53:46.676Z,71.55
2022-12-11T14:56:22.522Z,71.53
2022-12-11T14:59:02.527Z,71.20
2022-12-11T15:01:37.618Z,70.92
2022-12-11T15:04:27.323Z,70.19
2022-12-11T15:06:53.960Z,70.38
2022-12-11T15:09:43.270Z,70.98
2022-12-11T15:12:13.875Z,71.17
2022-12-11T15:14:54.053Z,71.79
2022-12-11T15:17:21.984Z,71.81
2022-12-11T15:19:56.935Z,71.30
2022-12-11T15:22:28.248Z,70.29
2022-12-11T15:24:55.215Z,70.55
2022-12-11T15:27:36.522Z,71.33
2022-12-11T15:30:29.187Z,71.10
2022-12-11T15:33:19.275Z,72.04
2022-12-11T15:36:06.690Z,72.33
2022-12-11T15:38:34.878Z,73.31
2022-12-11T15:41:03.278Z,71.52
2022-12-11T15:43:34.513Z,72.58
2022-12-11T15:46:02.519Z,71.83
2022-12-11T15:48:29.492Z,72.04
2022-12-11T15:50:56.153Z,71.96
2022-12-11T15:53:22.899Z,71.88
2022-12-11T15:55:50.907Z,71.89
2022-12-11T15:58:20.883Z,72.50
2022-12-11T16:00:47.507Z,72.48
2022-12-11T16:03:16.555Z,73.04
2022-12-11T16:05:43.593Z,72.82
2022-12-11T16:08:15.201Z,72.97
2022-12-11T16:10:43.307Z,72.36
2022-12-11T16:13:11.374Z,71.92
2022-12-11T16:15:39.749Z,72.07
2022-12-11T16:18:09.299Z,72.21
2022-12-11T16:20:37.351Z,71.81
2022-12-11T16:23:04.109Z,71.43
2022-12-11T16:25:32.618Z,71.41
2022-12-11T16:28:01.301Z,71.01
2022-12-11T16:30:29.349Z,71.49
2022-12-11T16:32:56.288Z,72.43
2022-12-11T16:35:23.077Z,71.80
2022-12-11T16:37:54.012Z,71.56
2022-12-11T16:40:22.272Z,71.53
2022-12-11T16:42:51.941Z,70.65
2022-12-11T16:45:23.543Z,70.61
2022-12-11T16:47:51.202Z,70.19
2022-12-11T16:50:18.442Z,70.67
2022-12-11T16:52:45.702Z,70.49
2022-12-11T16:55:13.948Z,71.63
2022-12-11T16:57:41.461Z,71.98
2022-12-11T17:00:12.000Z,72.20
2022-12-11T17:02:38.956Z,71.51
2022-12-11T17:05:06.330Z,71.48
2022-12-11T17:07:33.523Z,70.47
2022-12-11T17:10:02.742Z,70.81
2022-12-11T17:12:31.335Z,70.06
2022-12-11T17:14:58.098Z,70.03
2022-12-11T17:17:25.391Z,70.54
2022-12-11T17:19:52.107Z,70.51
2022-12-11T17:22:18.755Z,70.60
2022-12-11T17:24:45.405Z,69.65
2022-12-11T17:27:12.038Z,70.01
2022-12-11T17:29:39.735Z,70.63
2022-12-11T17:32:06.990Z,70.36
2022-12-11T17:34:38.069Z,69.83
2022-12-11T17:37:06.276Z,69.48
2022-12-11T17:39:33.266Z,69.29
2022-12-11T17:42:00.453Z,68.52
2022-12-11T17:44:30.399Z,69.61
2022-12-11T17:47:04.672Z,69.85
2022-12-11T17:49:34.228Z,69.08
2022-12-11T17:52:00.878Z,69.33
2022-12-11T17:54:27.566Z,69.78
2022-12-11T17:56:54.228Z,69.54
2022-12-11T17:59:20.960Z,69.06
2022-12-11T18:01:47.623Z,68.67
2022-12-11T18:04:14.449Z,69.08
2022-12-11T18:06:41.189Z,68.53
2022-12-11T18:09:08.489Z,69.25
2022-12-11T18:11:35.296Z,69.10
2022-12-11T18:14:02.055Z,68.24
2022-12-11T18:16:32.445Z,67.83
2022-12-11T18:18:59.438Z,68.19
2022-12-11T18:21:32.727Z,68.56
2022-12-11T18:24:00.671Z,68.02
2022-12-11T18:26:27.707Z,68.44
2022-12-11T18:28:54.575Z,69.20
2022-12-11T18:31:22.845Z,70.84
2022-12-11T18:33:50.015Z,70.65
2022-12-11T18:36:17.859Z,68.94
2022-12-11T18:38:45.165Z,69.72
2022-12-11T18:41:13.320Z,69.48
2022-12-11T18:43:40.623Z,70.25
2022-12-11T18:46:14.240Z,71.01
2022-12-11T18:48:45.080Z,70.63
2022-12-11T18:51:14.949Z,70.84
2022-12-11T18:53:41.652Z,69.37
2022-12-11T18:56:11.964Z,70.60
2022-12-11T18:58:39.045Z,70.62
2022-12-11T19:01:33.915Z,70.09
2022-12-11T19:04:06.520Z,70.78
2022-12-11T19:06:35.930Z,71.08
2022-12-11T19:09:05.039Z,70.52
2022-12-11T19:11:33.116Z,71.00
2022-12-11T19:14:00.179Z,72.07
2022-12-11T19:16:35.448Z,73.16
2022-12-11T19:19:06.054Z,73.28
2022-12-11T19:21:35.218Z,73.12
2022-12-11T19:24:01.953Z,71.66
2022-12-11T19:26:28.622Z,71.71
2022-12-11T19:28:59.860Z,71.70
2022-12-11T19:31:37.147Z,71.50
2022-12-11T19:34:03.866Z,71.76
2022-12-11T19:36:31.492Z,70.87
2022-12-11T19:39:01.821Z,71.13
2022-12-11T19:41:30.117Z,72.60
2022-12-11T19:43:58.467Z,73.11
2022-12-11T19:46:26.999Z,75.08
2022-12-11T19:48:55.318Z,75.01
2022-12-11T19:51:25.366Z,74.40
2022-12-11T19:53:52.180Z,72.77
2022-12-11T19:56:20.098Z,73.19
2022-12-11T19:58:47.863Z,73.24
2022-12-11T20:01:22.339Z,73.96
2022-12-11T20:03:49.673Z,74.52
2022-12-11T20:06:16.306Z,74.14
2022-12-11T20:08:45.585Z,73.38
2022-12-11T20:11:18.023Z,75.04
2022-12-11T20:13:48.828Z,73.80
2022-12-11T20:16:17.371Z,73.73
2022-12-11T20:18:44.814Z,73.14
2022-12-11T20:21:14.438Z,73.97
2022-12-11T20:23:42.001Z,72.52
2022-12-11T20:26:12.079Z,73.51
2022-12-11T20:28:39.094Z,73.00
2022-12-11T20:31:07.867Z,71.41
2022-12-11T20:33:34.658Z,71.79
2022-12-11T20:36:02.096Z,71.44
2022-12-11T20:38:34.169Z,71.55
2022-12-11T20:41:01.145Z,70.35
2022-12-11T20:43:27.790Z,71.17
2022-12-11T20:45:54.503Z,72.46
2022-12-11T20:48:21.173Z,72.06
2022-12-11T20:50:48.104Z,72.05
2022-12-11T20:53:14.746Z,72.92
2022-12-11T20:55:43.104Z,70.89
2022-12-11T20:58:10.387Z,69.51
2022-12-11T21:00:37.826Z,70.60
2022-12-11T21:03:04.908Z,70.26
2022-12-11T21:05:31.765Z,70.12
2022-12-11T21:07:58.432Z,68.57
2022-12-11T21:10:25.156Z,70.16
2022-12-11T21:12:51.983Z,71.56
2022-12-11T21:15:18.667Z,69.79
2022-12-11T21:17:45.432Z,70.33
2022-12-11T21:20:12.080Z,70.07
2022-12-11T21:22:39.773Z,68.69
2022-12-11T21:25:06.745Z,69.04
2022-12-11T21:27:33.962Z,70.02
2022-12-11T21:30:00.723Z,70.37
2022-12-11T21:32:29.825Z,71.49
2022-12-11T21:34:58.516Z,72.23
2022-12-11T21:37:25.270Z,72.44
2022-12-11T21:39:55.987Z,73.19
2022-12-11T21:42:23.399Z,73.63
2022-12-11T21:45:37.655Z,73.56
2022-12-11T21:47:38.341Z,73.91
2022-12-11T21:50:05.576Z,74.21
2022-12-11T21:52:32.196Z,74.08
2022-12-11T21:54:58.815Z,74.94
2022-12-11T21:57:26.734Z,73.89
2022-12-11T21:59:53.504Z,71.10
2022-12-11T22:02:20.176Z,72.22
2022-12-11T22:04:47.447Z,72.58
2022-12-11T22:07:15.221Z,73.32
2022-12-11T22:09:42.719Z,74.19
2022-12-11T22:12:22.895Z,74.09
2022-12-11T22:14:49.825Z,75.40
2022-12-11T22:17:18.233Z,75.72
2022-12-11T22:19:47.079Z,75.36
2022-12-11T22:22:14.241Z,75.74
2022-12-11T22:24:41.335Z,76.27
2022-12-11T22:27:08.039Z,76.27
2022-12-11T22:29:35.536Z,76.70
2022-12-11T22:32:02.200Z,76.94
2022-12-11T22:34:28.915Z,77.61
2022-12-11T22:36:56.199Z,77.73
2022-12-11T22:39:24.412Z,77.65
2022-12-11T22:41:51.328Z,78.39
2022-12-11T22:44:20.062Z,77.51
2022-12-11T22:46:50.269Z,77.81
2022-12-11T22:49:19.107Z,78.34
2022-12-11T22:51:46.052Z,77.30
2022-12-11T22:54:12.689Z,77.78
2022-12-11T22:56:39.311Z,78.28
2022-12-11T22:59:07.505Z,78.29
2022-12-11T23:01:34.564Z,78.30
2022-12-11T23:04:01.525Z,78.07
2022-12-11T23:06:28.677Z,78.34
2022-12-11T23:09:00.284Z,79.74
2022-12-11T23:11:30.185Z,81.15
2022-12-11T23:13:57.415Z,81.13
2022-12-11T23:16:26.350Z,79.83
2022-12-11T23:18:54.216Z,77.97
2022-12-11T23:21:21.933Z,78.99
2022-12-11T23:23:49.595Z,77.93
2022-12-11T23:26:18.734Z,76.62
2022-12-11T23:28:46.415Z,76.43
2022-12-11T23:31:13.838Z,77.11
2022-12-11T23:33:40.691Z,78.53
2022-12-11T23:36:07.837Z,77.33
2022-12-11T23:38:35.375Z,76.44
2022-12-11T23:41:03.009Z,76.15
2022-12-11T23:43:29.776Z,77.28
2022-12-11T23:45:57.588Z,77.01
2022-12-11T23:48:24.517Z,77.79
2022-12-11T23:50:51.442Z,76.91
2022-12-11T23:53:18.623Z,76.93
2022-12-11T23:55:46.317Z,76.91
2022-12-11T23:58:13.017Z,77.16
